Time;durP1;ratioP1;P1;durP2;ratioP2;P2;SDS_P1;SDS_P2;PMS_P1;PMS_P2;Temp;Humidity;BMP_temperature;BMP_pressure;BME280_temperature;BME280_humidity;BME280_pressure;Samples;Min_cycle;Max_cycle;Signal;HPM_P1;HPM_P2
2023/01/22 00:01:07;;;;;;;;;;;;;;;24.82;35.15;94532.13;4934036;29;8429;-63
2023/01/22 00:03:35;;;;;;;;;;;;;;;24.81;35.58;94536.16;4936040;29;9224;-63
2023/01/22 00:06:01;;;;;;;;;;;;;;;24.81;35.70;94535.41;4933643;29;7046;-62
2023/01/22 00:08:27;;;;;;;;;;;;;;;24.80;34.98;94523.63;4950867;29;7033;-63
2023/01/22 00:10:54;;;;;;;;;;;;;;;24.82;35.28;94526.63;4952009;29;7489;-62
2023/01/22 00:13:23;;;;;;;;;;;;;;;24.82;35.48;94526.63;4933307;29;7006;-63
2023/01/22 00:15:49;;;;;;;;;;;;;;;24.81;35.51;94527.16;4943392;28;7047;-63
2023/01/22 00:18:17;;;;;;;;;;;;;;;24.82;35.75;94525.88;4935209;29;9168;-63
2023/01/22 00:20:48;;;;;;;;;;;;;;;24.81;35.19;94527.16;4953185;29;7129;-63
2023/01/22 00:23:21;;;;;;;;;;;;;;;24.83;35.55;94525.41;4952248;29;9100;-62
2023/01/22 00:25:58;;;;;;;;;;;;;;;24.84;35.63;94531.66;4953720;29;7373;-62
2023/01/22 00:28:25;;;;;;;;;;;;;;;24.84;35.69;94529.63;4952366;28;9381;-62
2023/01/22 00:30:59;;;;;;;;;;;;;;;24.83;35.40;94530.91;4952203;28;9078;-62
2023/01/22 00:33:26;;;;;;;;;;;;;;;24.84;35.83;94529.63;4954709;28;9036;-63
2023/01/22 00:36:01;;;;;;;;;;;;;;;24.76;35.53;94520.41;4955858;28;7643;-62
2023/01/22 00:38:30;;;;;;;;;;;;;;;24.81;35.91;94525.16;4935309;28;9016;-63
2023/01/22 00:41:03;;;;;;;;;;;;;;;24.82;35.95;94537.63;4955189;28;7356;-62
2023/01/22 00:43:31;;;;;;;;;;;;;;;24.81;35.83;94533.41;4954853;28;7533;-62
2023/01/22 00:45:59;;;;;;;;;;;;;;;24.81;36.02;94532.66;4934863;28;8828;-63
2023/01/22 00:48:26;;;;;;;;;;;;;;;24.82;35.37;94534.88;4951785;28;7056;-62
2023/01/22 00:50:53;;;;;;;;;;;;;;;24.82;35.93;94532.13;4954532;28;8686;-62
2023/01/22 00:53:21;;;;;;;;;;;;;;;24.84;35.93;94539.91;4947455;28;7251;-63
2023/01/22 00:55:51;;;;;;;;;;;;;;;24.83;35.80;94533.66;4953769;28;9127;-62
2023/01/22 00:58:17;;;;;;;;;;;;;;;24.84;35.67;94528.91;4952262;28;7112;-62
2023/01/22 01:00:45;;;;;;;;;;;;;;;24.82;36.08;94529.38;4929614;29;6984;-62
2023/01/22 01:03:29;;;;;;;;;;;;;;;24.82;35.48;94531.38;4952173;28;9189;-62
2023/01/22 01:06:12;;;;;;;;;;;;;;;24.83;35.43;94527.38;4930546;29;7072;-62
2023/01/22 01:08:42;;;;;;;;;;;;;;;24.83;35.81;94541.16;4933218;28;7848;-62
2023/01/22 01:11:16;;;;;;;;;;;;;;;24.82;35.30;94537.63;4950786;28;9494;-62
2023/01/22 01:13:42;;;;;;;;;;;;;;;24.82;36.13;94536.88;4930124;28;7055;-62
2023/01/22 01:16:18;;;;;;;;;;;;;;;24.80;35.21;94529.13;4945509;28;9340;-62
2023/01/22 01:18:45;;;;;;;;;;;;;;;24.82;35.78;94536.88;4934941;28;9624;-63
2023/01/22 01:21:11;;;;;;;;;;;;;;;24.81;36.12;94535.41;4952601;28;7450;-63
2023/01/22 01:23:39;;;;;;;;;;;;;;;24.80;35.42;94522.88;4936961;28;8740;-63
2023/01/22 01:26:07;;;;;;;;;;;;;;;24.82;35.94;94531.38;4926122;28;7379;-63
2023/01/22 01:28:37;;;;;;;;;;;;;;;24.83;36.12;94524.63;4953527;28;7225;-63
2023/01/22 01:31:15;;;;;;;;;;;;;;;24.82;36.47;94521.13;4955439;28;7047;-62
2023/01/22 01:33:41;;;;;;;;;;;;;;;24.86;36.27;94538.13;4938960;28;9021;-61
2023/01/22 01:36:13;;;;;;;;;;;;;;;24.85;36.17;94525.63;4953263;28;7352;-62
2023/01/22 01:38:40;;;;;;;;;;;;;;;24.86;35.82;94524.38;4934046;28;8125;-61
2023/01/22 01:41:07;;;;;;;;;;;;;;;24.83;36.16;94519.13;4951915;28;7162;-62
2023/01/22 01:43:35;;;;;;;;;;;;;;;24.82;36.73;94525.88;4953969;28;9029;-62
2023/01/22 01:46:10;;;;;;;;;;;;;;;24.82;36.13;94517.63;4952530;28;7006;-62
2023/01/22 01:48:47;;;;;;;;;;;;;;;24.82;35.47;94518.38;4946742;28;7037;-62
2023/01/22 01:51:28;;;;;;;;;;;;;;;24.83;36.37;94521.88;4920267;28;9025;-62
2023/01/22 01:53:56;;;;;;;;;;;;;;;24.83;36.08;94516.38;4948371;28;9127;-62
2023/01/22 01:56:42;;;;;;;;;;;;;;;24.81;35.87;94513.38;4934371;28;7399;-62
2023/01/22 01:59:14;;;;;;;;;;;;;;;24.81;36.34;94516.13;4944001;28;7444;-62
2023/01/22 02:01:44;;;;;;;;;;;;;;;24.81;36.55;94507.88;4950728;28;7019;-62
2023/01/22 02:04:13;;;;;;;;;;;;;;;24.81;36.44;94516.91;4952638;28;8720;-62
2023/01/22 02:06:40;;;;;;;;;;;;;;;24.82;35.81;94520.38;4949724;28;9056;-62
2023/01/22 02:09:08;;;;;;;;;;;;;;;24.81;35.73;94518.88;4951699;28;9056;-62
2023/01/22 02:11:38;;;;;;;;;;;;;;;24.81;35.91;94511.41;4933385;28;7301;-62
2023/01/22 02:14:12;;;;;;;;;;;;;;;24.82;36.19;94521.13;4956689;28;7217;-62
2023/01/22 02:17:11;;;;;;;;;;;;;;;24.81;35.82;94514.16;4939631;28;7403;-62
2023/01/22 02:19:47;;;;;;;;;;;;;;;24.80;36.04;94504.38;4880895;29;9021;-62
2023/01/22 02:22:20;;;;;;;;;;;;;;;24.81;35.48;94502.38;4876669;29;7267;-61
2023/01/22 02:24:48;;;;;;;;;;;;;;;24.81;35.51;94507.88;4882825;29;8997;-62
2023/01/22 02:27:17;;;;;;;;;;;;;;;24.82;36.47;94509.38;4881467;29;8998;-62
2023/01/22 02:30:01;;;;;;;;;;;;;;;24.83;36.45;94505.38;4880600;29;9016;-62
2023/01/22 02:32:28;;;;;;;;;;;;;;;24.80;35.70;94511.88;4890583;29;9374;-62
2023/01/22 02:35:00;;;;;;;;;;;;;;;24.80;35.58;94496.13;4897914;29;9106;-62
2023/01/22 02:37:28;;;;;;;;;;;;;;;24.81;36.43;94500.38;4880300;29;7015;-62
2023/01/22 02:40:21;;;;;;;;;;;;;;;24.81;35.43;94499.63;4882163;29;7812;-62
2023/01/22 02:43:04;;;;;;;;;;;;;;;24.80;35.86;94501.63;4888187;29;7023;-62
2023/01/22 02:46:00;;;;;;;;;;;;;;;24.81;36.22;94502.38;4894323;29;7257;-62
2023/01/22 02:48:34;;;;;;;;;;;;;;;24.81;35.78;94503.16;4862774;29;7876;-62
2023/01/22 02:51:03;;;;;;;;;;;;;;;24.80;35.67;94496.13;4878709;29;8095;-61
2023/01/22 02:53:39;;;;;;;;;;;;;;;24.81;35.50;94494.13;4875197;29;7251;-61
2023/01/22 02:56:10;;;;;;;;;;;;;;;24.80;35.68;94489.88;4893898;29;7302;-62
2023/01/22 02:58:37;;;;;;;;;;;;;;;24.80;36.32;94484.38;4900499;29;8681;-61
2023/01/22 03:01:21;;;;;;;;;;;;;;;24.80;35.81;94495.38;4899197;29;9512;-61
2023/01/22 03:03:50;;;;;;;;;;;;;;;24.80;36.45;94487.13;4899568;29;7103;-62
2023/01/22 03:06:52;;;;;;;;;;;;;;;24.82;36.10;94484.63;4898362;29;8930;-62
2023/01/22 03:09:18;;;;;;;;;;;;;;;24.83;35.73;94489.63;4844414;29;7279;-61
2023/01/22 03:11:53;;;;;;;;;;;;;;;24.81;35.61;94486.63;4871444;29;7080;-62
2023/01/22 03:23:19;;;;;;;;;;;;;;;24.81;35.37;94469.38;4879716;29;7328;-62
2023/01/22 03:25:55;;;;;;;;;;;;;;;24.81;35.76;94472.13;4878695;29;7632;-62
2023/01/22 03:28:21;;;;;;;;;;;;;;;24.83;35.72;94466.88;4925853;29;7888;-62
2023/01/22 03:30:56;;;;;;;;;;;;;;;24.82;35.97;94473.59;4899388;29;9033;-62
2023/01/22 03:33:23;;;;;;;;;;;;;;;24.81;35.54;94467.38;4921682;29;7215;-62
2023/01/22 03:36:11;;;;;;;;;;;;;;;24.81;36.05;94466.63;4915714;29;9503;-62
2023/01/22 03:38:47;;;;;;;;;;;;;;;24.82;35.42;94470.84;4915512;29;9183;-62
2023/01/22 03:41:16;;;;;;;;;;;;;;;24.82;35.47;94466.13;4897999;29;9034;-62
2023/01/22 03:43:54;;;;;;;;;;;;;;;24.81;35.69;94470.13;4937232;28;7033;-62
2023/01/22 03:46:26;;;;;;;;;;;;;;;24.81;35.58;94472.13;4953526;28;8754;-62
2023/01/22 03:48:55;;;;;;;;;;;;;;;24.81;36.12;94480.38;4947342;28;7495;-62
2023/01/22 03:51:30;;;;;;;;;;;;;;;24.81;36.14;94472.88;4938825;28;9335;-62
2023/01/22 03:54:23;;;;;;;;;;;;;;;24.81;36.35;94481.13;4939507;29;9032;-62
2023/01/22 03:56:49;;;;;;;;;;;;;;;24.80;35.72;94484.38;4955787;28;7845;-62
2023/01/22 03:59:15;;;;;;;;;;;;;;;24.82;36.20;94476.34;4955151;28;9075;-62
2023/01/22 04:01:41;;;;;;;;;;;;;;;24.82;36.00;94481.88;4953235;29;7308;-62
2023/01/22 04:04:22;;;;;;;;;;;;;;;24.82;35.75;94484.63;4952486;28;7274;-62
2023/01/22 04:06:49;;;;;;;;;;;;;;;24.82;35.62;94490.13;4954116;29;8131;-62
2023/01/22 04:09:15;;;;;;;;;;;;;;;24.83;35.53;94488.88;4937885;29;7010;-62
2023/01/22 04:11:41;;;;;;;;;;;;;;;24.83;36.43;94488.88;4949580;29;9745;-62
2023/01/22 04:14:07;;;;;;;;;;;;;;;24.81;35.93;94492.13;4950782;29;7038;-62
2023/01/22 04:16:33;;;;;;;;;;;;;;;24.81;35.97;94492.13;4934878;29;7109;-62
2023/01/22 04:19:00;;;;;;;;;;;;;;;24.82;35.87;94498.38;4922595;29;8939;-62
2023/01/22 04:21:31;;;;;;;;;;;;;;;24.82;36.05;94501.88;4933983;29;9045;-62
2023/01/22 04:23:59;;;;;;;;;;;;;;;24.82;36.21;94498.38;4951932;29;8301;-62
2023/01/22 04:26:25;;;;;;;;;;;;;;;24.83;35.41;94499.88;4934939;29;7414;-62
2023/01/22 04:28:51;;;;;;;;;;;;;;;24.83;36.10;94502.63;4935669;29;7234;-62
2023/01/22 04:31:19;;;;;;;;;;;;;;;24.82;36.17;94499.13;4950917;29;7748;-62
2023/01/22 04:33:48;;;;;;;;;;;;;;;24.82;35.94;94499.13;4948470;29;7386;-62
2023/01/22 04:36:13;;;;;;;;;;;;;;;24.83;36.49;94505.38;4921214;29;8757;-62
2023/01/22 04:38:39;;;;;;;;;;;;;;;24.83;36.29;94494.38;4949111;28;7261;-62
2023/01/22 04:41:07;;;;;;;;;;;;;;;24.82;35.63;94503.88;4934324;29;7012;-62
2023/01/22 04:43:36;;;;;;;;;;;;;;;24.84;35.47;94512.41;4930818;29;7019;-62
2023/01/22 04:46:04;;;;;;;;;;;;;;;24.84;35.80;94507.63;4957050;28;9057;-62
2023/01/22 04:48:32;;;;;;;;;;;;;;;24.83;35.48;94514.38;4945169;29;8826;-62
2023/01/22 04:50:58;;;;;;;;;;;;;;;24.82;36.41;94510.13;4934359;29;7521;-62
2023/01/22 04:53:24;;;;;;;;;;;;;;;24.81;36.37;94514.16;4947824;29;8963;-62
2023/01/22 04:55:50;;;;;;;;;;;;;;;24.83;36.22;94513.63;4952902;29;7423;-62
2023/01/22 04:58:19;;;;;;;;;;;;;;;24.83;35.66;94519.13;4935019;29;9031;-62
2023/01/22 05:00:45;;;;;;;;;;;;;;;24.83;36.22;94521.88;4950786;29;9538;-62
2023/01/22 05:03:11;;;;;;;;;;;;;;;24.82;36.01;94520.38;4932561;29;9389;-62
2023/01/22 05:05:45;;;;;;;;;;;;;;;24.81;35.98;94525.16;4951456;29;9161;-62
2023/01/22 05:08:16;;;;;;;;;;;;;;;24.81;36.13;94516.13;4946449;29;7379;-62
2023/01/22 05:10:44;;;;;;;;;;;;;;;24.81;36.18;94514.16;4931038;29;7377;-62
2023/01/22 05:13:12;;;;;;;;;;;;;;;24.80;36.44;94518.13;4931713;29;7397;-61
2023/01/22 05:15:40;;;;;;;;;;;;;;;24.78;35.95;94523.38;4919844;29;8993;-62
2023/01/22 05:18:06;;;;;;;;;;;;;;;24.82;36.01;94529.38;4951566;28;9015;-61
2023/01/22 05:20:32;;;;;;;;;;;;;;;24.80;35.78;94520.13;4953049;28;7083;-62
2023/01/22 05:22:58;;;;;;;;;;;;;;;24.81;35.90;94521.66;4932649;28;8678;-61
2023/01/22 05:25:24;;;;;;;;;;;;;;;24.81;36.03;94532.66;4954349;28;9344;-62
2023/01/22 05:27:50;;;;;;;;;;;;;;;24.80;36.19;94531.13;4950370;28;7120;-61
2023/01/22 05:30:18;;;;;;;;;;;;;;;24.80;36.25;94525.63;4954421;28;9042;-62
2023/01/22 05:32:46;;;;;;;;;;;;;;;24.80;36.60;94533.88;4951034;28;7252;-62
2023/01/22 05:35:14;;;;;;;;;;;;;;;24.77;36.18;94518.41;4942309;28;7906;-62
2023/01/22 05:37:39;;;;;;;;;;;;;;;24.79;36.15;94526.91;4951483;28;9403;-62
2023/01/22 05:40:08;;;;;;;;;;;;;;;24.80;35.95;94529.13;4937854;28;7680;-62
2023/01/22 05:42:34;;;;;;;;;;;;;;;24.80;35.92;94542.13;4950885;28;7327;-62
2023/01/22 05:45:00;;;;;;;;;;;;;;;24.78;35.66;94530.88;4952252;28;7373;-61
2023/01/22 05:47:33;;;;;;;;;;;;;;;24.75;36.59;94527.13;4943634;28;7031;-62
2023/01/22 05:50:02;;;;;;;;;;;;;;;24.79;36.32;94532.41;4937787;28;7396;-61
2023/01/22 05:52:28;;;;;;;;;;;;;;;24.79;35.67;94541.41;4951313;28;7278;-61
2023/01/22 05:54:54;;;;;;;;;;;;;;;24.80;36.59;94534.63;4953752;28;7171;-61
2023/01/22 05:57:20;;;;;;;;;;;;;;;24.81;36.19;94543.66;4933002;29;9261;-62
2023/01/22 05:59:48;;;;;;;;;;;;;;;24.81;36.28;94544.41;4922099;28;6991;-62
2023/01/22 06:02:14;;;;;;;;;;;;;;;24.81;36.11;94547.16;4932778;29;9449;-62
2023/01/22 06:04:40;;;;;;;;;;;;;;;24.82;35.67;94547.88;4953883;28;8863;-61
2023/01/22 06:07:06;;;;;;;;;;;;;;;24.80;35.81;94551.16;4935300;28;7065;-61
2023/01/22 06:09:32;;;;;;;;;;;;;;;24.82;36.10;94547.88;4954083;28;9144;-61
2023/01/22 06:11:58;;;;;;;;;;;;;;;24.81;35.99;94552.66;4952676;28;9018;-61
2023/01/22 06:14:25;;;;;;;;;;;;;;;24.82;35.62;94553.38;4923750;28;9226;-61
2023/01/22 06:16:51;;;;;;;;;;;;;;;24.82;35.73;94554.16;4951738;28;8719;-61
2023/01/22 06:19:16;;;;;;;;;;;;;;;24.81;35.89;94551.91;4953377;28;9343;-61
2023/01/22 06:21:44;;;;;;;;;;;;;;;24.80;36.10;94553.91;4953696;28;9028;-61
2023/01/22 06:24:45;;;;;;;;;;;;;;;24.82;35.83;94561.63;4937876;28;8972;-62
2023/01/22 06:27:14;;;;;;;;;;;;;;;24.82;36.31;94567.16;4910011;29;9285;-62
2023/01/22 06:29:40;;;;;;;;;;;;;;;24.83;36.12;94565.91;4900369;29;7757;-61
2023/01/22 06:32:07;;;;;;;;;;;;;;;24.81;35.99;94563.66;4904304;29;9615;-61
2023/01/22 06:34:34;;;;;;;;;;;;;;;24.81;36.57;94563.66;4913915;29;7038;-61
2023/01/22 06:37:01;;;;;;;;;;;;;;;24.78;35.91;94563.91;4911057;29;9053;-62
2023/01/22 06:39:27;;;;;;;;;;;;;;;24.81;36.25;94563.66;4898924;29;9061;-61
2023/01/22 06:41:53;;;;;;;;;;;;;;;24.81;35.89;94569.16;4907375;29;7091;-61
2023/01/22 06:44:22;;;;;;;;;;;;;;;24.82;35.96;94561.63;4895416;29;9314;-62
2023/01/22 06:46:48;;;;;;;;;;;;;;;24.79;36.24;94562.66;4915198;29;8689;-62
2023/01/22 06:49:14;;;;;;;;;;;;;;;24.82;35.65;94565.16;4902472;29;8667;-61
2023/01/22 06:51:43;;;;;;;;;;;;;;;24.82;35.72;94575.41;4912256;29;7028;-62
2023/01/22 06:54:11;;;;;;;;;;;;;;;24.83;36.54;94574.91;4900074;29;9051;-65
2023/01/22 06:56:40;;;;;;;;;;;;;;;24.80;35.76;94570.41;4893954;29;9077;-63
2023/01/22 06:59:06;;;;;;;;;;;;;;;24.81;35.55;94580.16;4898453;29;7045;-63
2023/01/22 07:01:34;;;;;;;;;;;;;;;24.79;36.06;94571.66;4898571;29;9374;-62
2023/01/22 07:04:04;;;;;;;;;;;;;;;24.79;35.99;94570.91;4920729;29;9307;-63
2023/01/22 07:06:41;;;;;;;;;;;;;;;24.81;35.95;94580.16;4945154;28;9065;-63
2023/01/22 07:09:12;;;;;;;;;;;;;;;24.82;36.76;94586.41;4936373;28;7242;-63
2023/01/22 07:11:42;;;;;;;;;;;;;;;24.82;36.33;94583.66;4924549;28;7016;-63
2023/01/22 07:14:16;;;;;;;;;;;;;;;24.82;35.70;94595.41;4944540;28;9054;-63
2023/01/22 07:16:46;;;;;;;;;;;;;;;24.81;35.98;94601.41;4946683;28;8799;-63
2023/01/22 07:19:12;;;;;;;;;;;;;;;24.81;36.51;94604.16;4938238;28;7307;-63
2023/01/22 07:21:41;;;;;;;;;;;;;;;24.79;36.16;94599.19;4947871;28;9063;-63
2023/01/22 07:24:08;;;;;;;;;;;;;;;24.80;35.98;94608.16;4922795;29;9158;-63
2023/01/22 07:26:37;;;;;;;;;;;;;;;24.79;36.71;94598.41;4920174;28;7066;-63
2023/01/22 07:29:12;;;;;;;;;;;;;;;24.79;36.48;94599.19;4953318;28;9035;-63
2023/01/22 07:31:38;;;;;;;;;;;;;;;24.79;35.79;94595.66;4942357;28;7181;-63
2023/01/22 07:34:06;;;;;;;;;;;;;;;24.79;36.21;94601.16;4950833;28;7890;-63
2023/01/22 07:36:33;;;;;;;;;;;;;;;24.78;36.30;94596.91;4947036;28;7255;-63
2023/01/22 07:39:06;;;;;;;;;;;;;;;24.77;35.92;94601.69;4950501;28;8886;-63
2023/01/22 07:41:34;;;;;;;;;;;;;;;24.81;36.35;94593.94;4929954;28;7168;-62
2023/01/22 07:44:02;;;;;;;;;;;;;;;24.79;36.04;94596.44;4929203;28;7028;-62
2023/01/22 07:46:28;;;;;;;;;;;;;;;24.81;36.51;94601.41;4935044;28;9250;-62
2023/01/22 07:48:54;;;;;;;;;;;;;;;24.82;35.96;94597.41;4940226;28;9090;-62
2023/01/22 07:51:20;;;;;;;;;;;;;;;24.84;35.92;94601.16;4947702;28;8965;-62
2023/01/22 07:53:46;;;;;;;;;;;;;;;24.90;36.41;94601.94;4930421;28;9121;-62
2023/01/22 07:56:16;;;;;;;;;;;;;;;24.89;35.82;94602.41;4937350;28;6980;-62
2023/01/22 07:58:42;;;;;;;;;;;;;;;24.93;35.90;94602.91;4943740;28;7234;-62
2023/01/22 08:01:14;;;;;;;;;;;;;;;24.92;35.95;94601.41;4947136;28;7026;-62
2023/01/22 08:03:40;;;;;;;;;;;;;;;24.93;36.43;94606.41;4933196;29;7109;-62
2023/01/22 08:06:10;;;;;;;;;;;;;;;24.93;36.15;94611.16;4925636;29;7332;-62
2023/01/22 08:08:37;;;;;;;;;;;;;;;24.91;37.02;94617.16;4927383;29;8695;-62
2023/01/22 08:11:13;;;;;;;;;;;;;;;24.93;36.81;94616.66;4924117;29;9201;-62
2023/01/22 08:13:39;;;;;;;;;;;;;;;24.93;36.71;94613.91;4951800;29;9017;-62
2023/01/22 08:16:08;;;;;;;;;;;;;;;24.94;36.95;94616.19;4951029;29;8657;-62
2023/01/22 08:18:35;;;;;;;;;;;;;;;24.96;37.05;94621.19;4940784;29;7283;-62
2023/01/22 08:21:01;;;;;;;;;;;;;;;24.95;36.79;94619.66;4929234;29;9094;-62
2023/01/22 08:23:32;;;;;;;;;;;;;;;24.96;37.02;94623.94;4929121;29;7068;-62
2023/01/22 08:26:06;;;;;;;;;;;;;;;24.95;36.75;94616.91;4944228;29;9435;-62
2023/01/22 08:28:32;;;;;;;;;;;;;;;25.00;36.65;94622.44;4944776;29;8751;-62
2023/01/22 08:31:05;;;;;;;;;;;;;;;25.02;36.88;94622.66;4943848;29;6844;-62
2023/01/22 08:33:32;;;;;;;;;;;;;;;25.04;36.18;94624.91;4938863;29;9487;-63
2023/01/22 08:36:00;;;;;;;;;;;;;;;25.06;36.01;94625.16;4946742;29;10773;-62
2023/01/22 08:38:27;;;;;;;;;;;;;;;25.06;36.52;94623.16;4938309;29;7241;-62
2023/01/22 08:40:56;;;;;;;;;;;;;;;25.06;35.97;94617.66;4946791;28;7010;-62
2023/01/22 08:43:24;;;;;;;;;;;;;;;25.09;36.34;94629.69;4953664;28;9047;-62
2023/01/22 08:45:56;;;;;;;;;;;;;;;25.05;36.21;94623.69;4949791;29;7101;-62
2023/01/22 08:48:29;;;;;;;;;;;;;;;25.04;36.63;94622.16;4923876;29;7225;-62
2023/01/22 08:51:09;;;;;;;;;;;;;;;25.03;36.26;94628.94;4955423;28;7345;-62
2023/01/22 08:53:43;;;;;;;;;;;;;;;25.00;36.74;94625.19;4938384;28;7632;-62
2023/01/22 08:56:09;;;;;;;;;;;;;;;24.97;36.26;94625.44;4937506;28;7183;-64
2023/01/22 08:58:35;;;;;;;;;;;;;;;24.99;36.93;94628.44;4953508;28;7325;-64
2023/01/22 09:01:02;;;;;;;;;;;;;;;24.96;36.63;94634.94;4945851;28;7172;-65
2023/01/22 09:03:28;;;;;;;;;;;;;;;24.95;36.53;94625.16;4929302;28;7291;-64
2023/01/22 09:05:57;;;;;;;;;;;;;;;24.94;37.39;94632.69;4941218;28;7154;-64
2023/01/22 09:08:24;;;;;;;;;;;;;;;24.96;37.09;94623.94;4947658;28;8664;-65
2023/01/22 09:10:50;;;;;;;;;;;;;;;24.99;36.75;94631.19;4929669;28;8734;-64
2023/01/22 09:13:23;;;;;;;;;;;;;;;25.03;36.95;94635.19;4951433;28;7011;-64
2023/01/22 09:15:51;;;;;;;;;;;;;;;25.07;36.30;94634.94;4946626;28;7255;-64
2023/01/22 09:18:18;;;;;;;;;;;;;;;25.10;36.61;94633.94;4931517;28;9238;-64
2023/01/22 09:20:46;;;;;;;;;;;;;;;25.12;36.42;94637.66;4946146;28;7048;-64
2023/01/22 09:23:12;;;;;;;;;;;;;;;25.15;36.28;94631.16;4947612;28;7493;-64
2023/01/22 09:25:43;;;;;;;;;;;;;;;25.18;36.41;94629.41;4941871;28;7027;-65
2023/01/22 09:28:11;;;;;;;;;;;;;;;25.18;36.87;94638.44;4949400;28;7276;-64
2023/01/22 09:30:41;;;;;;;;;;;;;;;25.17;37.31;94633.41;4943835;28;7286;-64
2023/01/22 09:33:27;;;;;;;;;;;;;;;25.19;36.89;94637.16;4952649;28;9032;-65
2023/01/22 09:36:08;;;;;;;;;;;;;;;25.20;40.97;94644.19;4956349;28;7498;-65
2023/01/22 09:38:34;;;;;;;;;;;;;;;25.28;40.28;94644.41;4943725;28;7026;-65
2023/01/22 09:41:16;;;;;;;;;;;;;;;25.29;38.39;94640.41;4933485;28;8992;-65
2023/01/22 09:44:29;;;;;;;;;;;;;;;25.29;37.79;94643.91;4944607;28;8475;-66
2023/01/22 09:47:17;;;;;;;;;;;;;;;25.28;37.55;94644.41;4946248;28;8974;-66
2023/01/22 09:50:12;;;;;;;;;;;;;;;25.26;37.68;94639.41;4946318;28;8883;-66
2023/01/22 09:52:39;;;;;;;;;;;;;;;25.29;37.84;94643.16;4936727;28;7270;-66
2023/01/22 09:55:11;;;;;;;;;;;;;;;25.31;36.56;94646.94;4953201;28;8641;-66
2023/01/22 09:57:45;;;;;;;;;;;;;;;25.29;36.88;94645.94;4929484;28;7259;-66
2023/01/22 10:00:53;;;;;;;;;;;;;;;25.31;36.42;94643.41;4933172;28;8965;-67
2023/01/22 10:03:25;;;;;;;;;;;;;;;25.30;37.37;94650.16;4951489;28;7074;-62
2023/01/22 10:06:03;;;;;;;;;;;;;;;25.29;37.63;94656.94;4955769;28;7132;-62
2023/01/22 10:09:14;;;;;;;;;;;;;;;25.27;37.28;94651.91;4941376;28;9146;-62
2023/01/22 10:11:48;;;;;;;;;;;;;;;25.22;37.67;94651.94;4934762;29;7511;-62
2023/01/22 10:14:21;;;;;;;;;;;;;;;25.18;37.73;94654.19;4947926;28;9021;-62
2023/01/22 10:16:49;;;;;;;;;;;;;;;25.17;37.47;94649.94;4942776;28;7841;-65
2023/01/22 10:19:27;;;;;;;;;;;;;;;25.14;38.14;94651.69;4944537;28;8728;-66
2023/01/22 10:22:12;;;;;;;;;;;;;;;25.11;37.69;94649.94;4929543;29;6869;-66
2023/01/22 10:24:57;;;;;;;;;;;;;;;25.13;38.41;94654.94;4943328;28;7018;-65
2023/01/22 10:27:40;;;;;;;;;;;;;;;25.13;37.89;94655.69;4938610;28;7026;-66
2023/01/22 10:30:29;;;;;;;;;;;;;;;25.13;37.44;94663.19;4935034;28;7245;-66
2023/01/22 10:32:58;;;;;;;;;;;;;;;25.14;38.70;94654.44;4948398;28;8415;-66
2023/01/22 10:35:26;;;;;;;;;;;;;;;25.14;38.91;94659.22;4927843;28;7333;-66
2023/01/22 10:37:58;;;;;;;;;;;;;;;25.14;38.45;94661.97;4936224;28;8969;-65
2023/01/22 10:40:37;;;;;;;;;;;;;;;25.13;39.23;94652.19;4950662;28;7227;-65
2023/01/22 10:43:12;;;;;;;;;;;;;;;25.18;39.44;94662.44;4948855;28;7212;-66
2023/01/22 10:45:54;;;;;;;;;;;;;;;25.27;39.28;94660.19;4948956;28;7423;-66
2023/01/22 10:48:22;;;;;;;;;;;;;;;25.37;39.09;94655.94;4951544;28;7183;-66
2023/01/22 10:51:02;;;;;;;;;;;;;;;25.46;39.68;94656.94;4934108;28;7363;-66
2023/01/22 10:53:38;;;;;;;;;;;;;;;25.70;38.49;94662.66;4951433;28;9277;-65
2023/01/22 10:56:11;;;;;;;;;;;;;;;25.84;38.08;94656.06;4947116;28;8738;-66
2023/01/22 10:58:47;;;;;;;;;;;;;;;25.84;38.43;94656.06;4954230;28;9767;-66
2023/01/22 11:01:29;;;;;;;;;;;;;;;25.76;39.25;94663.38;4945726;28;6990;-65
2023/01/22 11:04:13;;;;;;;;;;;;;;;25.67;39.67;94658.88;4953663;28;8680;-66
2023/01/22 11:06:46;;;;;;;;;;;;;;;25.62;39.46;94662.41;4949525;28;7969;-66
2023/01/22 11:09:18;;;;;;;;;;;;;;;25.59;38.92;94652.41;4929344;28;7320;-65
2023/01/22 11:11:59;;;;;;;;;;;;;;;25.57;39.32;94657.69;4943061;28;7097;-66
2023/01/22 11:14:49;;;;;;;;;;;;;;;25.56;38.93;94653.41;4943792;28;8982;-65
2023/01/22 11:17:30;;;;;;;;;;;;;;;25.61;39.40;94657.41;4945529;28;7044;-66
2023/01/22 11:20:16;;;;;;;;;;;;;;;25.56;39.83;94650.66;4943353;28;9017;-66
2023/01/22 11:22:55;;;;;;;;;;;;;;;25.46;39.60;94652.19;4923259;29;7307;-66
2023/01/22 11:25:22;;;;;;;;;;;;;;;25.45;39.29;94652.69;4932312;28;7073;-66
2023/01/22 11:28:26;;;;;;;;;;;;;;;25.47;38.93;94656.41;4952477;28;7018;-66
2023/01/22 11:31:15;;;;;;;;;;;;;;;25.48;39.68;94646.91;4947777;28;9508;-66
2023/01/22 11:34:15;;;;;;;;;;;;;;;25.48;39.19;94646.91;4926952;28;7011;-67
2023/01/22 11:36:59;;;;;;;;;;;;;;;25.45;39.43;94642.41;4938509;28;7057;-66
2023/01/22 11:40:20;;;;;;;;;;;;;;;25.45;39.26;94647.91;4954271;28;9030;-66
2023/01/22 11:43:35;;;;;;;;;;;;;;;25.45;39.57;94645.16;4891405;29;7077;-66
2023/01/22 11:46:39;;;;;;;;;;;;;;;25.43;39.93;94647.66;4872081;29;8015;-65
2023/01/22 11:49:39;;;;;;;;;;;;;;;25.42;39.66;94643.44;4877660;29;7225;-66
2023/01/22 11:55:38;;;;;;;;;;;;;;;25.41;39.33;94648.16;4895643;29;7069;-66
2023/01/22 11:58:32;;;;;;;;;;;;;;;25.40;40.15;94641.13;4879349;29;9403;-65
2023/01/22 12:01:35;;;;;;;;;;;;;;;25.38;39.14;94634.66;4873823;29;9365;-66
2023/01/22 12:04:22;;;;;;;;;;;;;;;25.38;40.01;94642.91;4876592;29;7361;-65
2023/01/22 12:07:34;;;;;;;;;;;;;;;25.38;39.30;94645.66;4887840;29;7259;-65
2023/01/22 12:10:27;;;;;;;;;;;;;;;25.41;39.90;94644.66;4875027;29;8703;-65
2023/01/22 12:13:15;;;;;;;;;;;;;;;25.40;39.50;94643.16;4888788;29;7258;-64
2023/01/22 12:16:22;;;;;;;;;;;;;;;25.39;39.04;94644.41;4870930;29;7111;-65
2023/01/22 12:19:11;;;;;;;;;;;;;;;25.38;38.84;94643.66;4865149;29;7282;-65
2023/01/22 12:22:33;;;;;;;;;;;;;;;25.40;39.01;94646.63;4873304;29;8557;-65
2023/01/22 12:25:15;;;;;;;;;;;;;;;25.42;39.93;94654.44;4854889;29;7121;-65
2023/01/22 12:27:52;;;;;;;;;;;;;;;25.45;38.87;94658.19;4858246;29;7124;-64
2023/01/22 12:30:55;;;;;;;;;;;;;;;25.46;39.82;94646.69;4853468;29;7279;-64
2023/01/22 12:33:30;;;;;;;;;;;;;;;25.47;38.60;94650.91;4859630;29;7525;-65
2023/01/22 12:36:02;;;;;;;;;;;;;;;25.47;39.09;94656.41;4844240;29;9003;-65
2023/01/22 12:38:41;;;;;;;;;;;;;;;25.52;39.54;94654.91;4838959;29;7530;-64
2023/01/22 12:41:53;;;;;;;;;;;;;;;25.53;39.28;94659.94;4859788;29;9013;-64
2023/01/22 12:44:54;;;;;;;;;;;;;;;25.50;38.67;94652.66;4856349;29;7382;-65
2023/01/22 12:48:13;;;;;;;;;;;;;;;25.53;38.47;94665.44;4859767;29;9001;-64
2023/01/22 12:50:49;;;;;;;;;;;;;;;25.51;38.38;94662.44;4770306;30;9122;-64
2023/01/22 12:54:01;;;;;;;;;;;;;;;25.53;38.55;94659.94;4770429;30;9260;-65
2023/01/22 12:56:31;;;;;;;;;;;;;;;25.51;38.26;94673.47;4769852;30;7203;-65
2023/01/22 12:58:58;;;;;;;;;;;;;;;25.51;38.45;94667.19;4788387;30;9132;-66
2023/01/22 13:01:34;;;;;;;;;;;;;;;25.50;38.29;94669.19;4774862;29;7606;-66
2023/01/22 13:04:05;;;;;;;;;;;;;;;25.43;36.03;94666.94;4769250;29;9156;-65
2023/01/22 13:06:37;;;;;;;;;;;;;;;25.32;33.08;94681.44;4779857;29;8693;-66
2023/01/22 13:09:20;;;;;;;;;;;;;;;25.24;32.07;94671.44;4785520;30;8875;-65
2023/01/22 13:11:46;;;;;;;;;;;;;;;25.17;30.94;94680.19;4786879;29;7426;-66
2023/01/22 13:14:23;;;;;;;;;;;;;;;25.17;30.13;94671.94;4784764;29;7236;-66
2023/01/22 13:17:16;;;;;;;;;;;;;;;25.19;29.57;94683.22;4785417;29;9302;-66
2023/01/22 13:20:18;;;;;;;;;;;;;;;25.19;30.60;94675.72;4786991;30;9038;-65
2023/01/22 13:22:47;;;;;;;;;;;;;;;25.21;30.48;94672.44;4760191;30;9328;-66
2023/01/22 13:25:29;;;;;;;;;;;;;;;25.22;30.44;94679.47;4772834;29;8735;-67
2023/01/22 13:28:01;;;;;;;;;;;;;;;25.23;30.36;94680.94;4794503;29;7134;-67
2023/01/22 13:30:32;;;;;;;;;;;;;;;25.22;29.85;94685.72;4804525;29;9440;-67
2023/01/22 13:33:31;;;;;;;;;;;;;;;25.27;30.22;94684.22;4816437;29;7400;-65
2023/01/22 13:36:08;;;;;;;;;;;;;;;25.28;30.41;94686.47;4839184;29;9161;-65
2023/01/22 13:38:37;;;;;;;;;;;;;;;25.28;30.70;94694.72;4808437;29;9111;-65
2023/01/22 13:41:16;;;;;;;;;;;;;;;25.28;30.98;94689.22;4824847;29;7161;-65
2023/01/22 13:43:56;;;;;;;;;;;;;;;25.30;31.51;94692.22;4840543;29;7037;-65
2023/01/22 13:46:25;;;;;;;;;;;;;;;25.31;31.08;94695.72;4822263;29;6885;-65